Time;durP1;ratioP1;P1;durP2;ratioP2;P2;SDS_P1;SDS_P2;PMS_P1;PMS_P2;Temp;Humidity;BMP_temperature;BMP_pressure;BME280_temperature;BME280_humidity;BME280_pressure;Samples;Min_cycle;Max_cycle;Signal;HPM_P1;HPM_P2
2023/02/26 00:00:13;;;;;;;16.08;7.97;;;;;;;1.88;73.82;97642.22;6090548;23;20028;-84
2023/02/26 00:02:54;;;;;;;16.75;8.65;;;;;;;1.79;74.08;97625.22;6066697;23;20468;-85
2023/02/26 00:05:23;;;;;;;15.27;8.38;;;;;;;2.19;73.94;97674.47;6118195;23;20081;-84
2023/02/26 00:10:56;;;;;;;17.10;8.88;;;;;;;2.30;74.16;97654.69;6095869;23;20037;-84
2023/02/26 00:13:27;;;;;;;18.48;8.60;;;;;;;2.10;73.66;97631.78;6074839;23;20448;-83
2023/02/26 00:15:58;;;;;;;17.77;8.73;;;;;;;1.93;73.87;97612.28;6087173;23;20119;-83
2023/02/26 00:18:31;;;;;;;16.55;7.93;;;;;;;2.01;73.94;97607.06;6059470;23;20053;-83
2023/02/26 00:21:34;;;;;;;13.63;7.32;;;;;;;2.18;73.59;97641.97;6107209;23;20475;-84
2023/02/26 00:24:22;;;;;;;18.60;9.20;;;;;;;2.03;74.20;97610.47;6082594;23;20029;-82
2023/02/26 00:27:00;;;;;;;16.05;8.35;;;;;;;1.60;73.96;97568.09;6060836;23;20018;-81
2023/02/26 00:29:29;;;;;;;15.75;8.48;;;;;;;1.31;74.05;97483.75;6081938;23;20029;-83
2023/02/26 00:31:59;;;;;;;17.67;7.90;;;;;;;1.95;74.09;97592.59;6056384;23;20050;-84
2023/02/26 00:34:29;;;;;;;15.00;7.85;;;;;;;1.72;74.26;97549.19;6107871;23;20090;-83
2023/02/26 00:37:20;;;;;;;13.30;7.45;;;;;;;2.02;74.27;97598.50;6090442;23;20089;-83
2023/02/26 00:40:16;;;;;;;18.80;8.20;;;;;;;1.83;73.78;97579.03;6094059;23;20084;-82
2023/02/26 00:42:58;;;;;;;14.35;7.05;;;;;;;1.25;73.73;97496.63;6072680;23;20103;-83
2023/02/26 00:45:35;;;;;;;18.80;8.98;;;;;;;1.15;74.80;97463.41;6118881;23;20070;-82
2023/02/26 00:48:49;;;;;;;14.98;7.88;;;;;;;1.66;74.87;97541.53;6124702;23;20022;-82
2023/02/26 00:51:35;;;;;;;9.82;5.65;;;;;;;1.69;74.42;97564.59;6069675;23;20033;-82
2023/02/26 00:54:38;;;;;;;10.68;5.93;;;;;;;1.30;74.90;97502.56;6144164;23;20014;-84
2023/02/26 00:57:54;;;;;;;;;;;;;;;;;;;;;
2023/02/26 01:01:31;;;;;;;12.77;6.68;;;;;;;1.49;74.89;97557.91;6096023;23;20017;-82
2023/02/26 01:04:22;;;;;;;9.90;5.50;;;;;;;1.08;74.59;97500.16;6094833;23;20174;-80
2023/02/26 01:07:03;;;;;;;12.02;6.15;;;;;;;0.81;75.28;97475.63;6097465;23;20018;-79
2023/02/26 01:14:35;;;;;;;;;;;;;;;;;;;;;
2023/02/26 01:17:32;;;;;;;11.25;5.88;;;;;;;1.35;75.03;97552.06;6075316;23;20029;-83
2023/02/26 01:20:12;;;;;;;12.68;6.55;;;;;;;1.06;75.89;97481.41;6066345;23;20029;-83
2023/02/26 01:23:06;;;;;;;12.70;5.72;;;;;;;1.16;75.76;97484.72;6065005;23;20018;-82
2023/02/26 01:25:43;;;;;;;11.57;5.28;;;;;;;0.89;74.84;97473.81;6041090;23;20026;-83
2023/02/26 01:28:35;;;;;;;9.65;5.07;;;;;;;0.84;75.80;97481.56;6125207;23;20025;-82
2023/02/26 01:31:06;;;;;;;9.75;5.00;;;;;;;0.38;75.18;97382.03;6145759;23;20002;-83
2023/02/26 01:33:54;;;;;;;9.63;4.83;;;;;;;0.33;75.51;97376.13;6093324;23;20018;-82
2023/02/26 01:36:26;;;;;;;10.32;5.53;;;;;;;0.54;75.67;97416.91;6116911;23;20024;-83
2023/02/26 01:39:05;;;;;;;10.38;5.38;;;;;;;0.83;75.52;97456.81;6091596;23;20329;-83
2023/02/26 01:50:12;;;;;;;8.90;4.55;;;;;;;0.79;76.13;97432.06;6145114;23;20021;-84
2023/02/26 01:53:17;;;;;;;;;;;;;;;;;;;;;
2023/02/26 01:56:03;;;;;;;9.00;4.88;;;;;;;0.55;75.59;97387.88;6117463;23;20029;-84
2023/02/26 01:59:22;;;;;;;8.77;4.57;;;;;;;0.34;76.21;97354.75;6093291;23;20017;-85
2023/02/26 02:05:18;;;;;;;7.68;4.32;;;;;;;1.15;76.39;97444.59;6151923;23;20084;-85
2023/02/26 02:08:38;;;;;;;10.00;5.00;;;;;;;1.29;75.78;97472.66;6132503;23;20593;-85
2023/02/26 02:11:40;;;;;;;;;;;;;;;;;;;;;
2023/02/26 02:15:16;;;;;;;8.95;4.47;;;;;;;1.42;76.87;97451.22;6121945;23;20021;-85
2023/02/26 02:18:30;;;;;;;8.18;4.40;;;;;;;1.46;76.60;97455.41;6124518;23;20014;-85
2023/02/26 02:21:32;;;;;;;12.63;5.82;;;;;;;1.44;76.65;97466.56;6139924;23;20068;-87
2023/02/26 02:24:13;;;;;;;8.82;4.93;;;;;;;1.11;76.25;97407.06;6116571;23;20378;-86
2023/02/26 02:27:32;;;;;;;10.50;5.28;;;;;;;1.13;76.72;97416.44;6117325;23;20072;-87
2023/02/26 02:30:42;;;;;;;10.77;5.22;;;;;;;1.38;76.46;97452.09;6123453;23;20021;-83
2023/02/26 02:34:11;;;;;;;8.88;5.32;;;;;;;0.96;76.17;97397.81;6137250;23;20351;-85
2023/02/26 02:37:13;;;;;;;10.98;5.00;;;;;;;0.74;76.23;97377.53;6139011;23;20463;-83
2023/02/26 02:40:21;;;;;;;10.02;4.82;;;;;;;0.18;76.43;97301.16;6119174;23;20017;-84
2023/02/26 02:43:14;;;;;;;6.78;4.43;;;;;;;0.50;76.75;97350.38;6117225;23;20021;-87
2023/02/26 02:46:01;;;;;;;7.68;3.40;;;;;;;0.96;76.68;97436.25;6122965;23;20025;-85
2023/02/26 02:49:00;;;;;;;7.22;3.97;;;;;;;0.95;77.76;97414.88;6113679;23;20014;-84
2023/02/26 02:51:47;;;;;;;9.05;4.03;;;;;;;0.28;77.62;97315.59;6124738;23;20452;-83
2023/02/26 02:54:47;;;;;;;7.05;3.97;;;;;;;0.99;77.29;97423.41;6148603;23;20096;-83
2023/02/26 02:58:34;;;;;;;;;;;;;;;;;;;;;
2023/02/26 03:04:28;;;;;;;6.20;3.50;;;;;;;0.54;77.26;97355.50;6080370;23;20078;-84
2023/02/26 03:07:09;;;;;;;6.90;3.67;;;;;;;0.72;77.31;97359.59;6111434;23;20017;-84
2023/02/26 03:09:57;;;;;;;7.20;4.43;;;;;;;0.25;78.07;97269.56;6119376;23;20025;-84
2023/02/26 03:12:55;;;;;;;;;;;;;;;;;;;;;
2023/02/26 03:16:33;;;;;;;6.85;3.90;;;;;;;1.12;78.05;97406.19;6112483;23;20018;-83
2023/02/26 03:19:40;;;;;;;;;;;;;;;;;;;;;
2023/02/26 03:23:18;;;;;;;7.05;4.05;;;;;;;1.11;77.68;97401.94;6109097;23;20073;-83
2023/02/26 03:25:57;;;;;;;6.28;3.80;;;;;;;1.09;77.85;97408.81;6109680;23;20014;-85
2023/02/26 03:29:04;;;;;;;7.40;4.32;;;;;;;0.67;77.68;97340.84;6087684;23;20018;-84
2023/02/26 03:32:29;;;;;;;7.10;4.53;;;;;;;0.81;78.35;97362.94;6109315;23;20046;-85
2023/02/26 03:35:21;;;;;;;7.03;4.45;;;;;;;0.95;78.19;97388.44;6107015;23;20021;-84
2023/02/26 03:37:58;;;;;;;6.60;4.22;;;;;;;0.97;77.85;97389.28;6085359;23;20022;-85
2023/02/26 03:41:08;;;;;;;;;;;;;;;;;;;;;
2023/02/26 03:44:06;;;;;;;10.15;5.18;;;;;;;0.80;77.79;97394.53;6091923;23;20460;-83
2023/02/26 03:46:55;;;;;;;10.02;5.10;;;;;;;1.05;78.68;97415.66;6085832;23;20022;-83
2023/02/26 03:51:08;;;;;;;10.43;5.50;;;;;;;0.60;78.54;97352.03;6077021;23;20098;-82
2023/02/26 03:54:31;;;;;;;10.40;5.10;;;;;;;0.37;77.65;97331.72;6096921;23;20053;-82
2023/02/26 03:58:01;;;;;;;9.60;4.90;;;;;;;0.44;77.95;97346.19;6131002;23;20041;-83
2023/02/26 04:01:19;;;;;;;;;;;;;;;;;;;;;
2023/02/26 04:04:54;;;;;;;8.75;5.63;;;;;;;0.56;78.38;97384.47;6113901;23;20080;-82
2023/02/26 04:12:54;;;;;;;11.90;5.97;;;;;;;0.53;78.73;97376.84;6040339;23;20095;-84
2023/02/26 04:15:45;;;;;;;8.95;5.47;;;;;;;0.45;77.99;97386.25;6031369;23;20026;-85
2023/02/26 04:19:09;;;;;;;10.02;5.78;;;;;;;0.97;78.25;97469.50;6051788;23;20015;-86
2023/02/26 04:22:30;;;;;;;11.18;6.25;;;;;;;0.57;79.11;97406.63;6053728;23;20022;-83
2023/02/26 04:25:46;;;;;;;10.88;6.18;;;;;;;0.62;78.78;97392.97;6017671;23;20023;-85
2023/02/26 04:29:05;;;;;;;9.63;5.77;;;;;;;1.17;78.57;97474.50;6028073;23;20114;-84
2023/02/26 04:32:23;;;;;;;10.63;6.10;;;;;;;1.25;79.30;97484.66;6052416;23;20018;-84
2023/02/26 04:35:24;;;;;;;9.82;5.78;;;;;;;0.80;79.19;97402.22;5996452;23;20023;-83
2023/02/26 04:38:03;;;;;;;10.55;5.95;;;;;;;1.20;79.08;97481.28;6017208;23;20014;-85
2023/02/26 04:41:09;;;;;;;10.20;5.35;;;;;;;0.90;79.44;97425.19;6087788;23;20022;-84
2023/02/26 04:44:11;;;;;;;;;;;;;;;;;;;;;
2023/02/26 04:46:47;;;;;;;9.52;4.93;;;;;;;1.40;79.14;97519.56;6089370;23;20104;-86
2023/02/26 04:49:47;;;;;;;7.57;4.72;;;;;;;0.67;79.43;97386.94;6026768;23;20023;-83
2023/02/26 04:52:18;;;;;;;8.45;4.43;;;;;;;0.77;79.35;97403.09;6112951;23;20022;-84
2023/02/26 04:55:09;;;;;;;8.60;4.47;;;;;;;1.61;79.24;97531.34;6087346;23;20033;-86
2023/02/26 04:58:09;;;;;;;9.18;4.05;;;;;;;1.04;79.17;97432.75;6114780;23;20034;-86
2023/02/26 05:05:34;;;;;;;5.47;3.30;;;;;;;1.07;78.90;97434.44;6027617;23;20025;-83
2023/02/26 05:08:22;;;;;;;5.05;3.20;;;;;;;1.29;79.23;97459.84;6122616;23;20022;-84
2023/02/26 05:11:14;;;;;;;5.38;3.58;;;;;;;1.69;79.19;97535.56;6111956;23;20018;-84
2023/02/26 05:13:46;;;;;;;6.28;3.10;;;;;;;1.05;79.03;97424.22;6111369;23;20018;-82
2023/02/26 05:16:21;;;;;;;3.88;2.67;;;;;;;1.58;78.79;97512.56;6087856;23;20086;-82
2023/02/26 05:18:58;;;;;;;3.47;2.25;;;;;;;1.31;79.22;97468.38;6087402;23;20014;-82
2023/02/26 05:21:39;;;;;;;3.03;2.40;;;;;;;1.64;79.17;97507.41;6086822;23;20033;-82
2023/02/26 05:24:14;;;;;;;3.00;2.13;;;;;;;1.51;79.32;97491.28;6086273;23;20056;-81
2023/02/26 05:27:03;;;;;;;5.03;2.20;;;;;;;2.08;79.19;97582.19;6110851;23;20018;-82
2023/02/26 05:29:45;;;;;;;2.50;1.95;;;;;;;1.80;78.53;97549.09;6111259;23;20041;-84
2023/02/26 05:32:28;;;;;;;3.33;1.70;;;;;;;1.75;79.01;97538.06;6111518;23;20024;-82
2023/02/26 05:34:59;;;;;;;3.38;1.90;;;;;;;2.09;78.48;97595.03;6088167;23;20048;-82
2023/02/26 05:37:31;;;;;;;1.83;1.40;;;;;;;1.83;78.54;97590.13;6063634;23;20022;-81
2023/02/26 05:40:00;;;;;;;3.55;1.70;;;;;;;1.83;78.95;97586.72;6092745;23;20033;-81
2023/02/26 05:42:32;;;;;;;;;;;;;;;2.02;78.61;97601.06;6113333;23;20017;-81
2023/02/26 05:45:21;;;;;;;2.92;1.70;;;;;;;1.56;78.61;97532.25;6041905;23;19920;-81
2023/02/26 05:47:55;;;;;;;2.08;1.50;;;;;;;1.58;78.42;97538.22;6112224;23;20577;-81
2023/02/26 05:50:45;;;;;;;3.05;1.50;;;;;;;1.35;78.04;97508.50;6065775;23;20057;-84
2023/02/26 05:53:11;;;;;;;1.70;1.30;;;;;;;1.73;78.57;97598.78;6102214;23;20032;-82
2023/02/26 05:55:38;;;;;;;1.52;1.23;;;;;;;1.65;78.61;97574.03;6072807;23;20106;-80
2023/02/26 05:58:10;;;;;;;1.80;1.20;;;;;;;1.93;78.52;97611.41;6097229;23;20021;-81
2023/02/26 06:00:47;;;;;;;1.75;1.17;;;;;;;1.87;78.61;97602.06;6047106;23;20022;-81
2023/02/26 06:03:22;;;;;;;1.40;1.08;;;;;;;1.60;78.04;97559.56;6097996;23;20033;-82
2023/02/26 06:06:25;;;;;;;1.40;1.05;;;;;;;2.13;78.34;97633.44;6075512;23;20564;-82
2023/02/26 06:09:43;;;;;;;1.85;1.27;;;;;;;1.61;77.86;97543.31;6087905;23;20018;-82
2023/02/26 06:12:15;;;;;;;1.45;1.05;;;;;;;1.96;77.82;97598.56;6130437;23;20033;-81
2023/02/26 06:15:06;;;;;;;1.38;1.13;;;;;;;2.35;77.70;97652.91;6104728;23;20118;-81
2023/02/26 06:17:51;;;;;;;1.35;1.08;;;;;;;2.37;77.58;97661.44;6087674;23;20014;-81
2023/02/26 06:23:55;;;;;;;1.00;0.90;;;;;;;2.06;77.71;97573.66;6064453;23;20087;-86
2023/02/26 06:26:37;;;;;;;1.13;1.02;;;;;;;2.36;77.57;97628.09;6100955;23;20028;-83
2023/02/26 06:30:03;;;;;;;;;;;;;;;;;;;;;
2023/02/26 06:32:37;;;;;;;1.73;1.27;;;;;;;2.34;77.31;97596.47;6111536;23;20017;-81
2023/02/26 06:35:20;;;;;;;1.73;1.23;;;;;;;2.71;77.25;97657.66;6098028;23;20133;-82
2023/02/26 06:38:25;;;;;;;1.92;1.17;;;;;;;2.96;77.26;97676.22;6107901;23;20573;-85
2023/02/26 06:41:31;;;;;;;1.80;1.30;;;;;;;2.47;76.88;97579.22;6071680;23;20021;-83
2023/02/26 06:43:57;;;;;;;3.00;1.77;;;;;;;2.93;76.54;97588.91;6099259;23;20024;-83
2023/02/26 06:46:45;;;;;;;3.80;2.20;;;;;;;3.10;76.91;97600.66;6107912;23;20101;-83
2023/02/26 06:49:11;;;;;;;3.88;2.25;;;;;;;3.63;76.49;97721.63;6125286;23;20540;-82
2023/02/26 06:56:29;;;;;;;2.42;1.80;;;;;;;3.43;75.54;97722.75;5954872;24;20095;-86
2023/02/26 06:59:40;;;;;;;2.17;1.73;;;;;;;3.27;75.45;97732.38;6003215;23;20018;-84
2023/02/26 07:02:17;;;;;;;2.22;1.83;;;;;;;2.46;75.16;97618.59;6101975;23;20476;-83
2023/02/26 07:09:34;;;;;;;2.30;1.70;;;;;;;3.04;75.32;97731.81;5980434;24;20182;-82
2023/02/26 07:12:03;;;;;;;2.42;1.63;;;;;;;2.58;75.64;97666.38;6028957;23;20074;-83
2023/02/26 07:15:18;;;;;;;2.25;1.80;;;;;;;2.81;74.87;97712.34;6131945;23;20105;-82
2023/02/26 07:18:27;;;;;;;5.45;3.00;;;;;;;2.37;74.92;97640.91;6104636;23;20014;-82
2023/02/26 07:20:56;;;;;;;3.03;1.95;;;;;;;2.63;75.15;97678.31;6100186;23;20018;-83
2023/02/26 07:23:48;;;;;;;3.65;2.50;;;;;;;3.00;74.77;97772.09;6126282;23;20025;-82
2023/02/26 07:26:55;;;;;;;2.63;1.80;;;;;;;2.48;74.25;97678.47;6126343;23;20018;-82
2023/02/26 07:34:17;;;;;;;2.90;1.95;;;;;;;3.01;74.34;97761.81;6094379;23;20033;-83
2023/02/26 07:37:55;;;;;;;4.28;1.60;;;;;;;3.03;74.43;97759.22;6049837;23;20027;-83
2023/02/26 07:40:22;;;;;;;2.30;1.83;;;;;;;2.87;74.47;97725.13;5985413;23;20031;-80
2023/02/26 07:46:19;;;;;;;2.08;1.60;;;;;;;2.88;74.16;97714.00;6048308;23;20089;-83
2023/02/26 07:53:12;;;;;;;2.85;1.52;;;;;;;2.95;73.84;97713.06;6085422;23;20116;-81
2023/02/26 07:56:03;;;;;;;1.98;1.50;;;;;;;3.29;73.90;97735.78;5994502;23;20078;-81
2023/02/26 07:58:41;;;;;;;1.65;1.40;;;;;;;3.21;73.70;97693.06;6067937;23;20013;-83
2023/02/26 08:04:40;;;;;;;1.40;1.20;;;;;;;4.16;72.70;97792.94;6066140;23;20023;-83
2023/02/26 08:07:12;;;;;;;5.90;1.60;;;;;;;3.67;72.71;97725.00;6106042;23;20017;-84
2023/02/26 08:10:58;;;;;;;1.73;1.33;;;;;;;3.63;72.27;97719.06;6126888;23;20018;-82
2023/02/26 08:13:33;;;;;;;2.45;1.48;;;;;;;3.18;72.44;97696.53;6096932;23;20029;-84
2023/02/26 08:16:00;;;;;;;4.90;1.48;;;;;;;3.89;72.05;97790.72;6099555;23;20104;-85
2023/02/26 08:18:56;;;;;;;3.17;1.80;;;;;;;3.53;72.25;97727.78;6079042;23;20014;-84
2023/02/26 08:21:54;;;;;;;2.40;1.60;;;;;;;3.50;71.54;97725.25;6022948;23;20019;-82
2023/02/26 08:24:36;;;;;;;2.30;1.30;;;;;;;3.91;71.62;97788.13;6088443;23;20026;-83
2023/02/26 08:28:09;;;;;;;1.48;1.33;;;;;;;4.03;71.43;97795.66;6047118;23;20030;-80
2023/02/26 08:30:42;;;;;;;1.85;1.30;;;;;;;3.87;71.55;97779.59;5994290;23;20136;-83
2023/02/26 08:33:54;;;;;;;;;;;;;;;;;;;;;
2023/02/26 08:37:01;;;;;;;2.07;1.43;;;;;;;3.75;71.06;97831.22;5980025;24;20028;-82
2023/02/26 08:39:34;;;;;;;2.35;1.33;;;;;;;3.25;70.40;97761.56;5963914;24;20301;-81
2023/02/26 08:42:15;;;;;;;3.13;1.58;;;;;;;3.18;70.96;97763.34;5992711;24;20537;-81
2023/02/26 08:49:27;;;;;;;1.50;1.20;;;;;;;4.44;71.20;97780.47;5953545;24;20069;-81
2023/02/26 08:52:03;;;;;;;1.27;0.90;;;;;;;4.60;69.41;97726.97;5925322;24;20008;-82
2023/02/26 08:58:27;;;;;;;1.10;0.90;;;;;;;6.41;68.29;97798.94;6030559;23;20114;-81
2023/02/26 09:00:54;;;;;;;1.55;1.10;;;;;;;6.24;66.28;97792.44;6025542;23;20018;-81
2023/02/26 09:03:32;;;;;;;1.90;1.13;;;;;;;5.82;66.06;97833.81;6086827;23;20240;-80
2023/02/26 09:06:03;;;;;;;2.90;1.55;;;;;;;5.19;66.08;97831.56;6134275;23;20121;-84
2023/02/26 09:08:33;;;;;;;1.15;1.00;;;;;;;5.02;66.00;97842.19;6060950;23;20018;-81
2023/02/26 09:11:01;;;;;;;2.22;1.10;;;;;;;4.59;65.35;97806.84;6115139;23;20021;-82
2023/02/26 09:13:31;;;;;;;1.08;0.98;;;;;;;5.01;65.16;97845.63;6138238;23;20033;-83
2023/02/26 09:16:40;;;;;;;1.63;0.80;;;;;;;5.23;65.11;97807.44;6069501;23;20017;-82
2023/02/26 09:19:16;;;;;;;1.13;0.90;;;;;;;4.79;64.03;97760.13;6097242;23;20456;-83
2023/02/26 09:25:53;;;;;;;1.20;1.10;;;;;;;3.82;64.50;97790.81;6110223;23;20022;-81
2023/02/26 09:28:20;;;;;;;1.50;1.23;;;;;;;4.43;64.40;97876.63;6105300;23;20029;-81
2023/02/26 09:31:02;;;;;;;1.55;1.10;;;;;;;3.82;63.94;97794.25;6128060;23;20073;-82
2023/02/26 09:34:01;;;;;;;4.80;1.30;;;;;;;3.88;64.00;97822.47;6101561;23;20041;-82
2023/02/26 09:36:40;;;;;;;1.27;1.00;;;;;;;4.05;63.94;97873.72;6070179;23;20112;-81
2023/02/26 09:39:19;;;;;;;1.65;1.17;;;;;;;4.03;64.03;97901.19;6083053;23;20014;-82
2023/02/26 09:42:30;;;;;;;1.20;1.10;;;;;;;4.14;64.07;97929.38;6078750;23;20482;-83
2023/02/26 09:45:27;;;;;;;0.98;0.88;;;;;;;3.66;63.22;97877.63;6075688;23;20456;-82
2023/02/26 09:52:15;;;;;;;;;;;;;;;;;;;;;
2023/02/26 09:55:49;;;;;;;3.17;0.98;;;;;;;4.07;63.29;97935.50;5945814;23;20087;-83
2023/02/26 09:59:03;;;;;;;1.00;0.90;;;;;;;3.37;63.14;97829.97;6019592;23;20060;-83
2023/02/26 10:09:27;;;;;;;2.08;1.30;;;;;;;3.77;61.77;97942.69;6123817;23;20029;-83
2023/02/26 10:30:14;;;;;;;1.50;0.85;;;;;;;3.65;60.70;97982.28;6120682;23;20029;-81
2023/02/26 11:28:02;;;;;;;;;;;;;;;;;;;;;
2023/02/26 11:31:52;;;;;;;1.25;1.00;;;;;;;4.45;56.96;98031.16;6055896;23;20014;-86
2023/02/26 11:47:25;;;;;;;2.42;1.30;;;;;;;4.29;56.32;98015.03;6166049;23;20132;-82
2023/02/26 11:50:51;;;;;;;;;;;;;;;;;;;;;
2023/02/26 11:53:29;;;;;;;2.35;1.27;;;;;;;3.81;57.34;97972.69;6132892;23;20021;-84
2023/02/26 11:56:20;;;;;;;2.65;1.40;;;;;;;4.26;56.87;98039.09;6159647;23;20013;-84
2023/02/26 11:58:54;;;;;;;1.88;1.42;;;;;;;4.18;57.63;98031.47;6155528;23;19998;-86
2023/02/26 12:17:19;;;;;;;2.17;1.65;;;;;;;4.68;57.87;98036.84;6147440;23;20022;-86
2023/02/26 12:21:04;;;;;;;;;;;;;;;;;;;;;
2023/02/26 12:28:51;;;;;;;3.38;1.80;;;;;;;4.98;56.92;98037.31;6140637;23;20010;-83
2023/02/26 12:32:06;;;;;;;2.53;1.10;;;;;;;4.79;57.57;98039.28;6095114;23;20032;-85
2023/02/26 12:35:39;;;;;;;1.88;1.30;;;;;;;4.73;57.22;98041.97;6124408;23;20542;-85
2023/02/26 12:39:03;;;;;;;2.85;1.40;;;;;;;4.73;57.46;98039.41;6120366;23;20081;-87
2023/02/26 12:42:24;;;;;;;2.85;1.45;;;;;;;4.17;56.81;97942.22;6145127;23;20041;-85
2023/02/26 12:45:52;;;;;;;2.08;1.23;;;;;;;4.48;56.80;98007.94;6096971;23;20018;-84
2023/02/26 12:49:09;;;;;;;1.85;1.30;;;;;;;4.62;56.89;98036.97;6154514;23;20028;-82
2023/02/26 12:52:14;;;;;;;;;;;;;;;;;;;;;
2023/02/26 12:55:28;;;;;;;2.08;1.20;;;;;;;4.17;56.75;97980.84;6182547;23;20036;-84
2023/02/26 12:59:14;;;;;;;;;;;;;;;;;;;;;
2023/02/26 13:02:56;;;;;;;2.38;1.40;;;;;;;4.19;55.91;98058.91;6129570;23;20044;-85
2023/02/26 13:05:49;;;;;;;2.50;1.30;;;;;;;4.17;56.11;98098.44;6120728;23;20021;-87
2023/02/26 13:09:52;;;;;;;;;;;;;;;;;;;;;
2023/02/26 13:13:23;;;;;;;2.75;1.60;;;;;;;3.11;56.94;98144.69;6067889;23;20072;-84
2023/02/26 13:17:04;;;;;;;3.40;1.80;;;;;;;2.76;58.21;98148.28;6113674;23;20013;-85
2023/02/26 13:25:03;;;;;;;1.90;1.20;;;;;;;2.43;59.91;98150.91;6007893;23;20033;-84
2023/02/26 13:58:46;;;;;;;3.50;2.63;;;;;;;1.62;63.64;98129.63;6113394;23;20030;-86
2023/02/26 14:35:39;;;;;;;5.18;3.65;;;;;;;1.07;66.85;98261.91;5822940;24;20041;-84
2023/02/26 14:39:52;;;;;;;8.43;4.32;;;;;;;0.27;66.81;98145.41;5830018;24;20037;-82
2023/02/26 14:42:51;;;;;;;;;;;;;;;;;;;;;
2023/02/26 14:46:09;;;;;;;;;;;;;;;;;;;;;
2023/02/26 15:23:11;;;;;;;7.82;4.93;;;;;;;-0.22;64.33;98257.56;6133383;23;20068;-83
2023/02/26 15:44:29;;;;;;;9.23;4.97;;;;;;;-0.44;63.47;98307.63;6125736;23;20026;-84
2023/02/26 16:16:19;;;;;;;;;;;;;;;;;;;;;
2023/02/26 16:19:45;;;;;;;9.95;5.00;;;;;;;-0.85;62.63;98393.09;5676586;25;20029;-82
2023/02/26 16:22:29;;;;;;;8.13;5.03;;;;;;;-0.42;63.08;98462.72;5765919;24;20027;-83
2023/02/26 16:25:37;;;;;;;10.82;5.22;;;;;;;-0.39;62.66;98454.22;5920367;23;20191;-83
2023/02/26 16:28:44;;;;;;;8.32;5.10;;;;;;;-1.21;63.18;98313.44;6098234;23;20108;-84
2023/02/26 16:31:24;;;;;;;10.20;5.43;;;;;;;-0.86;62.90;98399.91;6123122;23;20017;-86
2023/02/26 16:34:12;;;;;;;10.00;5.45;;;;;;;-0.36;62.88;98480.69;6123594;23;20017;-84
2023/02/26 16:36:47;;;;;;;8.35;5.20;;;;;;;-0.70;62.49;98431.66;6170630;23;20021;-84
2023/02/26 16:39:29;;;;;;;9.95;5.03;;;;;;;-1.12;62.72;98390.19;6109273;23;20025;-85
2023/02/26 16:42:36;;;;;;;9.40;5.10;;;;;;;-0.87;62.54;98444.16;6144446;23;20467;-85
2023/02/26 16:45:37;;;;;;;8.70;4.75;;;;;;;-0.75;62.93;98474.13;6113893;23;20083;-86
2023/02/26 16:48:33;;;;;;;9.02;5.47;;;;;;;-0.74;62.72;98510.78;6119391;23;20066;-83
2023/02/26 16:55:33;;;;;;;10.45;5.75;;;;;;;-0.86;62.94;98534.44;6148560;23;20097;-82
2023/02/26 17:02:25;;;;;;;8.35;5.20;;;;;;;-0.77;62.84;98530.34;6108637;23;20075;-87
2023/02/26 17:08:54;;;;;;;8.13;4.43;;;;;;;-1.02;62.63;98497.56;6144236;23;20081;-86
2023/02/26 17:11:29;;;;;;;11.00;5.22;;;;;;;-0.99;62.81;98497.59;6096661;23;20057;-84
2023/02/26 17:14:28;;;;;;;9.55;4.95;;;;;;;-0.94;62.58;98504.50;6121531;23;20047;-85
2023/02/26 17:17:04;;;;;;;8.63;5.05;;;;;;;-0.69;62.52;98524.50;6106112;23;20021;-86
2023/02/26 17:19:43;;;;;;;9.13;4.60;;;;;;;-0.80;62.25;98514.94;6143174;23;20014;-86
2023/02/26 17:22:33;;;;;;;11.00;5.00;;;;;;;-0.54;62.85;98547.72;6131683;23;20025;-85
2023/02/26 17:25:02;;;;;;;;;;;;;;;-0.53;62.26;98563.91;6080362;23;20017;-84
2023/02/26 17:27:34;;;;;;;7.72;4.60;;;;;;;-0.58;62.25;98551.06;6136254;23;19919;-85
2023/02/26 17:30:15;;;;;;;10.25;5.18;;;;;;;-1.37;61.82;98433.16;6146209;23;20036;-86
2023/02/26 17:33:12;;;;;;;8.98;4.70;;;;;;;-0.51;62.08;98582.69;6116953;23;20104;-86
2023/02/26 17:36:08;;;;;;;8.45;4.43;;;;;;;-0.77;61.88;98549.91;6117287;23;20050;-86
2023/02/26 17:42:42;;;;;;;8.23;4.25;;;;;;;-0.65;62.41;98573.13;6138405;23;20001;-86
2023/02/26 17:45:37;;;;;;;8.23;4.38;;;;;;;-1.48;61.65;98462.72;6124055;23;20340;-85
2023/02/26 17:48:51;;;;;;;8.73;4.45;;;;;;;-0.63;62.17;98612.34;6094730;23;20023;-84
2023/02/26 17:51:34;;;;;;;7.55;4.72;;;;;;;-0.77;62.21;98593.34;6067684;23;20342;-83
2023/02/26 17:54:17;;;;;;;8.88;4.25;;;;;;;-0.99;62.20;98541.03;6046505;23;20026;-89
2023/02/26 17:57:45;;;;;;;9.70;4.65;;;;;;;-0.54;61.96;98609.06;6092345;23;20002;-86
2023/02/26 18:10:06;;;;;;;7.22;4.05;;;;;;;-1.16;62.30;98572.22;6135993;23;20030;-83
2023/02/26 18:13:15;;;;;;;7.35;4.13;;;;;;;-0.92;61.68;98617.78;6168580;23;20037;-88
2023/02/26 18:16:48;;;;;;;7.33;3.87;;;;;;;-0.75;61.83;98655.53;6107283;23;20051;-89
2023/02/26 18:24:10;;;;;;;7.70;4.50;;;;;;;-1.13;62.09;98617.38;6118530;23;20498;-86
2023/02/26 18:26:47;;;;;;;8.35;4.18;;;;;;;-1.30;61.95;98600.03;6145540;23;20041;-85
2023/02/26 18:30:03;;;;;;;9.05;4.90;;;;;;;-1.67;62.22;98563.59;6097172;23;20014;-85
2023/02/26 18:45:29;;;;;;;10.35;5.05;;;;;;;-1.88;62.89;98625.19;6133197;23;20030;-87
2023/02/26 18:53:32;;;;;;;;;;;;;;;;;;;;;
2023/02/26 19:04:20;;;;;;;7.68;4.18;;;;;;;-1.77;63.55;98690.09;6143418;23;20025;-87
2023/02/26 19:06:57;;;;;;;7.50;4.60;;;;;;;-1.82;63.39;98671.25;6093995;23;20037;-88
2023/02/26 19:10:34;;;;;;;;;;;;;;;;;;;;;
2023/02/26 19:16:24;;;;;;;7.28;4.28;;;;;;;-1.90;63.94;98655.78;6175508;23;20025;-86
2023/02/26 19:18:53;;;;;;;9.05;4.43;;;;;;;-1.80;63.75;98676.38;6146843;23;20045;-84
2023/02/26 19:21:32;;;;;;;9.45;4.95;;;;;;;-1.85;63.61;98669.47;6121779;23;20017;-85
2023/02/26 19:27:11;;;;;;;13.90;5.00;;;;;;;-1.98;64.53;98663.22;6141788;23;20017;-87
2023/02/26 19:30:12;;;;;;;11.40;5.10;;;;;;;-1.26;64.82;98759.22;6143546;23;20017;-87
2023/02/26 19:32:45;;;;;;;9.30;4.70;;;;;;;-1.95;64.43;98649.72;6143902;23;20108;-83
2023/02/26 19:35:25;;;;;;;7.75;4.57;;;;;;;-1.63;64.29;98710.78;6089647;23;20049;-85
2023/02/26 19:38:03;;;;;;;8.13;4.50;;;;;;;-2.10;64.81;98649.38;6088840;23;20041;-85
2023/02/26 19:40:33;;;;;;;9.48;4.75;;;;;;;-1.98;65.06;98690.44;6069388;23;20024;-86
2023/02/26 19:43:23;;;;;;;7.80;4.50;;;;;;;-1.92;65.31;98703.34;6114931;23;20045;-85
2023/02/26 19:46:22;;;;;;;7.18;4.65;;;;;;;-1.38;65.56;98791.34;6115939;23;19998;-86
2023/02/26 19:48:52;;;;;;;6.97;4.03;;;;;;;-1.34;65.24;98792.25;6111514;23;20045;-84
2023/02/26 19:51:22;;;;;;;9.00;4.50;;;;;;;-2.03;64.96;98672.47;6113258;23;20022;-84
2023/02/26 19:53:48;;;;;;;11.48;4.30;;;;;;;-1.65;65.10;98762.59;6087822;23;20033;-86
2023/02/26 19:56:18;;;;;;;6.43;3.45;;;;;;;-1.63;65.51;98784.78;6139024;23;20065;-86
2023/02/26 19:58:48;;;;;;;8.15;3.83;;;;;;;-1.84;65.44;98754.53;6116689;23;20010;-87
2023/02/26 20:01:18;;;;;;;9.60;4.70;;;;;;;-1.75;65.08;98776.84;6111009;23;20270;-86
2023/02/26 20:04:08;;;;;;;8.32;4.32;;;;;;;-2.03;66.02;98726.03;6111421;23;20494;-86
2023/02/26 20:06:47;;;;;;;9.20;4.88;;;;;;;-2.36;65.85;98681.03;6145061;23;20041;-87
2023/02/26 20:09:22;;;;;;;8.95;4.60;;;;;;;-2.35;65.81;98692.94;6111291;23;20121;-86
2023/02/26 20:11:59;;;;;;;9.10;4.10;;;;;;;-1.78;66.14;98775.09;6112875;23;20072;-85
2023/02/26 20:14:50;;;;;;;6.60;3.63;;;;;;;-1.58;66.14;98810.41;6120629;23;20022;-86
2023/02/26 20:17:22;;;;;;;5.32;3.58;;;;;;;-2.40;65.96;98691.09;6136455;23;20013;-87
2023/02/26 20:20:13;;;;;;;6.00;3.45;;;;;;;-2.18;66.09;98731.59;6089295;23;20069;-85
2023/02/26 20:23:01;;;;;;;6.88;3.97;;;;;;;-1.49;66.05;98853.16;6112138;23;20061;-87
2023/02/26 20:25:49;;;;;;;7.32;3.78;;;;;;;-1.49;66.27;98859.09;6096615;23;20085;-88
2023/02/26 20:29:22;;;;;;;;;;;;;;;;;;;;;
2023/02/26 20:35:44;;;;;;;6.35;3.13;;;;;;;-1.91;66.26;98794.31;6050929;23;20024;-86
2023/02/26 20:38:37;;;;;;;6.32;3.47;;;;;;;-1.66;66.15;98835.75;6102287;23;20030;-86
2023/02/26 20:41:55;;;;;;;8.82;3.90;;;;;;;-1.45;65.77;98860.06;6025764;23;20023;-85
2023/02/26 20:44:30;;;;;;;6.65;3.58;;;;;;;-1.68;66.36;98824.66;6027144;23;20015;-86
2023/02/26 20:47:49;;;;;;;;;;;;;;;;;;;;;
2023/02/26 20:50:36;;;;;;;8.02;3.47;;;;;;;-1.99;65.61;98780.50;6025870;23;20472;-88
2023/02/26 20:53:09;;;;;;;7.88;4.10;;;;;;;-2.21;65.46;98739.16;6002468;23;20019;-88
2023/02/26 20:55:55;;;;;;;6.07;3.63;;;;;;;-1.95;65.28;98807.81;6051210;23;20015;-87
2023/02/26 20:58:25;;;;;;;6.38;3.85;;;;;;;-2.25;65.64;98793.44;5982864;23;20019;-84
2023/02/26 21:01:00;;;;;;;7.97;3.97;;;;;;;-1.49;65.54;98911.84;6028733;23;20010;-83
2023/02/26 21:03:45;;;;;;;7.38;4.50;;;;;;;-1.59;65.89;98886.09;6027324;23;20062;-82
2023/02/26 21:15:03;;;;;;;7.10;3.60;;;;;;;-1.85;65.99;98848.00;6178463;23;20030;-87